Time;durP1;ratioP1;P1;durP2;ratioP2;P2;SDS_P1;SDS_P2;PMS_P1;PMS_P2;Temp;Humidity;BMP_temperature;BMP_pressure;BME280_temperature;BME280_humidity;BME280_pressure;Samples;Min_cycle;Max_cycle;Signal;HPM_P1;HPM_P2
2021/07/27 00:02:55;;;;;;;6.10;5.20;;;;;;;21.89;98.92;95123.97;10534143;28;20497;-74
2021/07/27 00:07:55;;;;;;;10.90;5.57;;;;;;;21.77;99.20;95127.44;10559853;28;20032;-74
2021/07/27 00:12:56;;;;;;;7.93;5.43;;;;;;;21.79;100.00;95125.19;10524055;28;20269;-74
2021/07/27 00:17:56;;;;;;;6.63;5.15;;;;;;;21.68;100.00;95127.53;10540184;28;20046;-74
2021/07/27 00:22:57;;;;;;;18.15;5.93;;;;;;;21.56;100.00;95130.19;10522518;28;20034;-74
2021/07/27 00:27:57;;;;;;;9.77;6.07;;;;;;;21.52;100.00;95124.59;10595156;27;20034;-74
2021/07/27 00:32:58;;;;;;;9.90;5.75;;;;;;;21.46;100.00;95128.63;10618650;27;20019;-74
2021/07/27 00:38:08;;;;;;;12.10;5.60;;;;;;;21.46;100.00;95129.44;10615199;27;20069;-74
2021/07/27 00:43:12;;;;;;;9.25;5.03;;;;;;;21.55;100.00;95134.88;10575608;28;20849;-74
2021/07/27 00:48:12;;;;;;;9.50;5.60;;;;;;;21.43;97.93;95132.81;10575088;28;20031;-74
2021/07/27 00:53:14;;;;;;;8.53;5.43;;;;;;;21.46;99.63;95131.38;10575056;28;20024;-74
2021/07/27 00:58:14;;;;;;;13.45;6.07;;;;;;;21.38;100.00;95130.31;10574981;28;20541;-74
2021/07/27 01:03:15;;;;;;;9.15;6.28;;;;;;;21.37;100.00;95128.69;10574389;28;20103;-74
2021/07/27 01:08:15;;;;;;;11.93;6.03;;;;;;;21.37;100.00;95131.44;10574785;28;20474;-74
2021/07/27 01:13:16;;;;;;;9.38;6.35;;;;;;;21.17;100.00;95136.53;10574628;28;20026;-74
2021/07/27 01:18:22;;;;;;;7.77;6.23;;;;;;;21.16;100.00;95134.94;10573853;28;20015;-74
2021/07/27 01:39:32;;;;;;;11.75;7.90;;;;;;;20.63;100.00;95145.31;10573215;28;20565;-74
2021/07/27 01:44:49;;;;;;;11.07;6.78;;;;;;;20.61;100.00;95135.81;10554275;28;20038;-74
2021/07/27 01:49:50;;;;;;;15.73;7.28;;;;;;;20.64;100.00;95135.19;10573039;28;20487;-74
2021/07/27 01:54:54;;;;;;;9.60;6.28;;;;;;;20.56;100.00;95127.84;10573095;28;20028;-74
2021/07/27 01:59:57;;;;;;;17.48;7.47;;;;;;;20.45;100.00;95127.38;10572774;28;20023;-74
2021/07/27 02:04:57;;;;;;;17.73;7.75;;;;;;;20.35;100.00;95127.75;10572762;28;20023;-74
2021/07/27 02:10:03;;;;;;;12.83;8.30;;;;;;;20.17;100.00;95130.50;10553840;28;20462;-74
2021/07/27 02:15:04;;;;;;;16.27;8.45;;;;;;;20.07;100.00;95130.88;10571625;28;20607;-74
2021/07/27 02:20:06;;;;;;;15.52;8.50;;;;;;;20.07;100.00;95131.66;10572029;28;20080;-74
2021/07/27 02:25:09;;;;;;;14.43;8.05;;;;;;;20.02;100.00;95140.00;10571218;28;20777;-74
2021/07/27 02:30:09;;;;;;;12.27;7.78;;;;;;;20.10;100.00;95141.91;10571486;28;20019;-74
2021/07/27 02:35:10;;;;;;;10.73;7.10;;;;;;;20.08;100.00;95146.91;10570632;28;20491;-74
2021/07/27 02:40:10;;;;;;;14.15;8.27;;;;;;;20.04;100.00;95128.75;10571335;28;20688;-74
2021/07/27 02:45:12;;;;;;;17.75;8.70;;;;;;;20.05;100.00;95130.38;10570000;28;20034;-74
2021/07/27 02:50:12;;;;;;;17.33;8.40;;;;;;;19.92;100.00;95132.16;10570603;28;20038;-74
2021/07/27 02:55:13;;;;;;;13.40;8.75;;;;;;;19.99;100.00;95137.94;10551747;28;20022;-74
2021/07/27 03:00:14;;;;;;;16.85;8.70;;;;;;;19.95;100.00;95142.44;10569404;28;20103;-74
2021/07/27 03:05:17;;;;;;;16.92;9.20;;;;;;;19.88;100.00;95140.19;10569658;28;20024;-74
2021/07/27 03:10:21;;;;;;;21.98;9.00;;;;;;;19.72;100.00;95156.22;10569910;28;20032;-74
2021/07/27 03:15:22;;;;;;;21.00;9.07;;;;;;;19.71;100.00;95151.09;10570070;28;20019;-74
2021/07/27 03:20:25;;;;;;;17.73;9.05;;;;;;;19.63;100.00;95149.94;10585220;27;20077;-74
2021/07/27 03:25:26;;;;;;;17.10;9.80;;;;;;;19.50;100.00;95159.09;10568868;28;20402;-74
2021/07/27 03:30:26;;;;;;;24.52;9.60;;;;;;;19.52;100.00;95162.28;10568902;28;20039;-74
2021/07/27 03:35:26;;;;;;;21.93;10.10;;;;;;;19.55;100.00;95157.03;10568316;28;20802;-74
2021/07/27 03:40:27;;;;;;;15.53;9.17;;;;;;;19.68;100.00;95160.72;10567835;28;20110;-74
2021/07/27 03:45:27;;;;;;;21.80;10.40;;;;;;;19.75;100.00;95169.19;10568179;28;20436;-75
2021/07/27 03:50:28;;;;;;;17.77;9.57;;;;;;;19.85;100.00;95162.66;10567705;28;20035;-74
2021/07/27 03:55:28;;;;;;;18.02;10.13;;;;;;;19.85;100.00;95173.56;10565892;28;20026;-74
2021/07/27 04:00:30;;;;;;;13.45;8.20;;;;;;;19.88;100.00;95177.56;10566538;28;20046;-73
2021/07/27 04:05:34;;;;;;;20.48;8.32;;;;;;;19.97;100.00;95183.84;10566627;28;20063;-74
2021/07/27 04:10:35;;;;;;;16.13;8.73;;;;;;;20.09;100.00;95175.81;10567080;28;20019;-73
2021/07/27 04:15:35;;;;;;;17.37;8.10;;;;;;;20.14;100.00;95172.09;10567987;28;20398;-73
2021/07/27 04:20:36;;;;;;;15.60;8.25;;;;;;;20.31;100.00;95174.78;10572489;28;20272;-74
2021/07/27 04:25:36;;;;;;;16.00;8.65;;;;;;;20.51;100.00;95186.13;10582537;28;20035;-73
2021/07/27 04:30:37;;;;;;;18.33;8.93;;;;;;;20.64;100.00;95185.16;10581993;28;20027;-73
2021/07/27 04:35:37;;;;;;;12.18;7.20;;;;;;;20.87;100.00;95173.19;10609574;28;20030;-73
2021/07/27 04:40:38;;;;;;;13.90;8.73;;;;;;;21.09;100.00;95175.66;10605321;28;20034;-74
2021/07/27 04:45:38;;;;;;;13.90;9.87;;;;;;;21.29;100.00;95168.66;10601755;28;20468;-73
2021/07/27 04:50:39;;;;;;;19.60;11.43;;;;;;;21.62;100.00;95178.91;10581411;28;20101;-73
2021/07/27 04:55:39;;;;;;;15.35;8.70;;;;;;;21.92;100.00;95170.63;10569853;28;20474;-74
2021/07/27 05:00:40;;;;;;;16.77;9.30;;;;;;;22.24;100.00;95165.47;10564312;28;20024;-74
2021/07/27 05:05:40;;;;;;;16.67;9.17;;;;;;;22.42;100.00;95174.34;10572320;28;20027;-73
2021/07/27 05:10:45;;;;;;;17.87;9.80;;;;;;;22.81;100.00;95179.56;10574116;27;20284;-73
2021/07/27 05:15:45;;;;;;;20.02;9.23;;;;;;;23.30;99.35;95185.09;10574212;28;20356;-73
2021/07/27 05:20:46;;;;;;;19.73;10.07;;;;;;;24.00;95.81;95186.03;10573587;28;20024;-73
2021/07/27 05:25:46;;;;;;;19.33;8.93;;;;;;;24.47;89.44;95187.31;10546930;28;20047;-73
2021/07/27 05:30:47;;;;;;;12.93;7.80;;;;;;;25.13;83.14;95187.84;10530230;28;20116;-73
2021/07/27 05:35:47;;;;;;;14.77;7.20;;;;;;;25.54;81.14;95188.44;10530099;28;20028;-73
2021/07/27 05:40:52;;;;;;;14.75;7.07;;;;;;;26.04;74.65;95197.03;10530193;28;20032;-73
2021/07/27 05:45:53;;;;;;;16.27;7.15;;;;;;;26.66;74.31;95197.03;10530010;28;20031;-73
2021/07/27 05:50:53;;;;;;;11.93;7.37;;;;;;;27.18;70.34;95194.03;10530042;28;20766;-73
2021/07/27 05:55:54;;;;;;;17.97;6.87;;;;;;;27.62;65.90;95194.34;10529634;28;20494;-73
2021/07/27 06:00:54;;;;;;;12.07;7.10;;;;;;;28.23;63.65;95197.16;10529992;28;20274;-73
2021/07/27 06:05:54;;;;;;;16.97;7.30;;;;;;;28.71;59.58;95190.22;10529483;28;20188;-73
2021/07/27 06:10:55;;;;;;;12.90;6.97;;;;;;;28.90;58.79;95194.72;10529219;28;20536;-73
2021/07/27 06:15:55;;;;;;;12.60;7.23;;;;;;;29.55;54.71;95193.31;10528955;28;20031;-74
2021/07/27 06:20:55;;;;;;;12.37;6.83;;;;;;;30.06;51.14;95186.13;10527955;28;20032;-74
2021/07/27 06:25:56;;;;;;;14.40;6.80;;;;;;;30.73;49.39;95184.03;10528519;28;20052;-73
2021/07/27 06:30:56;;;;;;;11.57;7.07;;;;;;;30.79;46.94;95181.66;10528882;28;20028;-74
2021/07/27 06:35:58;;;;;;;11.32;6.72;;;;;;;30.91;47.02;95181.28;10528917;28;20055;-74
2021/07/27 06:40:58;;;;;;;17.67;7.80;;;;;;;31.42;45.84;95172.97;10529868;28;20057;-74
2021/07/27 06:45:59;;;;;;;10.15;6.60;;;;;;;31.53;45.27;95170.97;10529526;28;20028;-74
2021/07/27 06:51:17;;;;;;;12.73;6.10;;;;;;;31.81;42.83;95167.38;10511972;28;20042;-73
2021/07/27 06:56:17;;;;;;;10.77;6.43;;;;;;;32.24;42.13;95183.16;10529017;28;20028;-74
2021/07/27 07:01:18;;;;;;;16.05;7.05;;;;;;;31.95;41.79;95168.53;10526826;28;20114;-74
2021/07/27 07:06:18;;;;;;;12.35;6.88;;;;;;;33.63;39.65;95163.19;10526204;28;20674;-74
2021/07/27 07:11:19;;;;;;;17.33;6.22;;;;;;;34.22;36.86;95161.38;10526246;28;20411;-74
2021/07/27 07:16:19;;;;;;;12.77;5.67;;;;;;;35.10;36.47;95157.03;10526350;28;20509;-74
2021/07/27 07:21:19;;;;;;;9.97;5.47;;;;;;;35.90;35.05;95157.25;10507660;28;20027;-74
2021/07/27 07:26:20;;;;;;;9.30;5.40;;;;;;;36.17;33.56;95153.56;10525764;28;20058;-74
2021/07/27 07:31:20;;;;;;;12.30;5.33;;;;;;;36.78;32.83;95146.69;10525149;28;20043;-74
2021/07/27 07:36:21;;;;;;;16.80;5.30;;;;;;;37.28;31.03;95144.75;10525113;28;20103;-74
2021/07/27 07:41:21;;;;;;;7.53;4.80;;;;;;;37.04;30.06;95146.91;10525395;28;20475;-74
2021/07/27 07:46:21;;;;;;;12.17;5.03;;;;;;;36.38;30.15;95154.34;10523699;28;20028;-74
2021/07/27 07:51:24;;;;;;;9.93;5.83;;;;;;;37.87;29.74;95144.84;10524013;28;20035;-72
2021/07/27 07:56:30;;;;;;;10.27;5.05;;;;;;;38.42;28.68;95149.78;10524613;28;20028;-74
2021/07/27 08:01:30;;;;;;;12.75;5.22;;;;;;;39.32;28.09;95141.41;10524383;28;20543;-73
2021/07/27 08:06:31;;;;;;;11.37;4.47;;;;;;;39.42;27.54;95145.09;10524844;28;20032;-74
2021/07/27 08:11:32;;;;;;;12.88;4.68;;;;;;;39.99;27.26;95150.81;10524718;28;20114;-74
2021/07/27 08:16:32;;;;;;;8.60;4.30;;;;;;;40.60;25.24;95142.19;10524197;28;20035;-74
2021/07/27 08:21:32;;;;;;;10.30;4.57;;;;;;;40.25;26.17;95148.69;10524412;28;20469;-74
2021/07/27 08:26:33;;;;;;;21.87;4.70;;;;;;;40.00;24.91;95149.56;10524100;28;20048;-74
2021/07/27 08:31:33;;;;;;;7.63;4.80;;;;;;;39.59;26.06;95140.13;10524272;28;20059;-74
2021/07/27 08:36:33;;;;;;;8.50;4.50;;;;;;;39.87;25.64;95141.19;10524013;28;20089;-73
2021/07/27 08:41:38;;;;;;;14.57;4.17;;;;;;;40.88;24.78;95140.28;10526059;28;20114;-74
2021/07/27 08:46:38;;;;;;;12.53;4.70;;;;;;;41.16;24.13;95141.19;10514159;28;20032;-74
2021/07/27 08:51:39;;;;;;;7.27;4.27;;;;;;;41.17;24.10;95139.19;10531782;28;20031;-72
2021/07/27 08:56:46;;;;;;;8.10;4.95;;;;;;;39.84;25.47;95130.81;10527769;28;20081;-72
2021/07/27 09:01:47;;;;;;;10.77;4.47;;;;;;;40.60;24.32;95130.94;10531810;28;20472;-73
2021/07/27 09:06:57;;;;;;;8.82;4.10;;;;;;;40.94;24.58;95130.00;10531333;28;20044;-73
2021/07/27 09:12:02;;;;;;;12.90;4.47;;;;;;;41.41;23.95;95114.03;10531526;28;20487;-73
2021/07/27 09:17:03;;;;;;;;;;;;;;;40.78;24.56;95121.78;10534074;28;20505;-73
2021/07/27 09:22:04;;;;;;;10.13;4.30;;;;;;;40.43;25.06;95122.66;10531092;28;19915;-73
2021/07/27 09:27:08;;;;;;;12.32;4.80;;;;;;;41.84;23.69;95115.03;10530583;28;20843;-72
2021/07/27 09:32:19;;;;;;;10.60;4.43;;;;;;;42.51;22.94;95108.84;10530273;28;20402;-73
2021/07/27 09:37:25;;;;;;;16.83;4.65;;;;;;;43.34;22.04;95104.88;10512164;28;20048;-73
2021/07/27 09:42:26;;;;;;;34.47;27.83;;;;;;;43.45;22.02;95101.53;10530720;28;20028;-73
2021/07/27 09:47:26;;;;;;;8.32;4.95;;;;;;;43.93;22.30;95104.38;10529935;28;20028;-73
2021/07/27 09:52:28;;;;;;;17.48;4.80;;;;;;;44.08;21.75;95097.94;10530146;28;20032;-72
2021/07/27 09:57:28;;;;;;;17.98;5.13;;;;;;;44.92;20.80;95098.59;10531587;28;20028;-73
2021/07/27 10:02:30;;;;;;;26.50;12.90;;;;;;;45.95;20.88;95092.28;10531786;28;20027;-73
2021/07/27 10:07:31;;;;;;;15.18;4.80;;;;;;;45.94;20.33;95085.81;10530809;28;20039;-73
2021/07/27 10:12:37;;;;;;;17.58;5.82;;;;;;;46.37;20.03;95080.34;10531095;28;20066;-73
2021/07/27 10:17:54;;;;;;;12.75;6.13;;;;;;;45.83;20.36;95077.13;10530660;28;20097;-73
2021/07/27 10:22:54;;;;;;;11.73;5.30;;;;;;;46.15;19.79;95068.72;10530155;28;20024;-73
2021/07/27 10:27:55;;;;;;;11.55;5.38;;;;;;;44.06;21.31;95063.63;10530991;28;20044;-73
2021/07/27 10:32:55;;;;;;;13.77;5.20;;;;;;;45.48;20.56;95061.00;10512004;28;20028;-73
2021/07/27 10:38:13;;;;;;;13.40;4.90;;;;;;;46.16;19.86;95058.91;10530634;28;20039;-73
2021/07/27 10:43:24;;;;;;;28.73;6.05;;;;;;;45.87;20.17;95052.97;10529852;28;20103;-73
2021/07/27 10:48:35;;;;;;;20.50;7.15;;;;;;;46.04;19.97;95046.69;10529786;28;20040;-73
2021/07/27 10:53:36;;;;;;;18.13;5.93;;;;;;;47.36;19.18;95042.25;10511622;28;20025;-73
2021/07/27 10:58:36;;;;;;;17.10;5.00;;;;;;;46.72;19.55;95033.88;10529382;28;20051;-73
2021/07/27 11:03:41;;;;;;;14.85;5.13;;;;;;;47.06;19.02;95031.25;10528984;28;20103;-73
2021/07/27 11:08:42;;;;;;;26.88;5.78;;;;;;;47.39;18.78;95027.03;10528903;28;20023;-73
2021/07/27 11:13:51;;;;;;;10.18;4.35;;;;;;;45.32;19.14;95026.19;10528495;28;20153;-73
2021/07/27 11:18:52;;;;;;;20.48;4.47;;;;;;;42.55;22.39;95019.03;10528737;28;20939;-73
2021/07/27 11:23:52;;;;;;;16.67;5.97;;;;;;;40.21;25.23;95020.53;10527743;28;20042;-73
2021/07/27 11:28:53;;;;;;;15.73;6.10;;;;;;;38.87;25.30;95016.78;10528381;28;20819;-73
2021/07/27 11:33:54;;;;;;;17.00;6.20;;;;;;;37.55;27.36;95006.28;10527771;28;20028;-73
2021/07/27 11:39:14;;;;;;;28.15;6.60;;;;;;;37.78;27.69;95010.84;10527668;28;20027;-73
2021/07/27 11:44:23;;;;;;;20.88;6.78;;;;;;;37.44;26.40;95005.78;10527104;28;20044;-73
2021/07/27 11:49:25;;;;;;;22.35;6.40;;;;;;;37.32;25.76;95000.94;10527525;28;20573;-73
2021/07/27 11:54:25;;;;;;;19.55;6.63;;;;;;;37.24;26.35;95003.88;10527505;28;20077;-73
2021/07/27 11:59:28;;;;;;;19.47;5.80;;;;;;;36.69;27.31;95002.88;10527281;28;20093;-73
2021/07/27 12:04:28;;;;;;;18.58;5.80;;;;;;;36.94;27.47;95002.28;10527147;28;20724;-73
2021/07/27 12:09:29;;;;;;;21.80;5.90;;;;;;;36.91;27.81;94991.94;10527352;28;20135;-73
2021/07/27 12:14:29;;;;;;;10.90;5.53;;;;;;;36.67;27.91;94994.13;10527239;28;20089;-73
2021/07/27 12:19:29;;;;;;;20.80;6.47;;;;;;;36.46;28.41;94989.84;10533806;28;20471;-73
2021/07/27 12:24:30;;;;;;;13.10;5.30;;;;;;;36.38;27.60;94987.22;10535714;28;20047;-73
2021/07/27 12:29:30;;;;;;;24.80;6.93;;;;;;;36.39;27.25;94983.16;10535216;28;20024;-73
2021/07/27 12:34:30;;;;;;;19.83;6.20;;;;;;;36.41;27.69;94975.13;10534919;28;20030;-73
2021/07/27 12:39:31;;;;;;;20.23;6.33;;;;;;;36.47;28.14;94977.44;10535289;28;20355;-73
2021/07/27 12:44:31;;;;;;;16.70;6.23;;;;;;;36.47;27.65;94978.19;10534385;28;20026;-73
2021/07/27 12:49:32;;;;;;;19.77;6.10;;;;;;;36.17;28.33;94960.50;10534208;28;20036;-73
2021/07/27 12:54:32;;;;;;;15.03;5.93;;;;;;;35.91;27.34;94962.28;10534752;28;20039;-73
2021/07/27 12:59:33;;;;;;;22.30;5.97;;;;;;;35.80;28.01;94954.09;10534290;28;20361;-73
2021/07/27 13:04:34;;;;;;;24.88;5.88;;;;;;;35.80;27.29;94956.09;10534101;28;20129;-73
2021/07/27 13:09:35;;;;;;;18.83;5.30;;;;;;;35.67;27.07;94950.38;10533821;28;20519;-73
2021/07/27 13:14:36;;;;;;;15.07;5.85;;;;;;;35.65;27.45;94945.22;10534225;28;20028;-73
2021/07/27 13:19:36;;;;;;;23.03;6.50;;;;;;;35.58;27.17;94940.59;10533228;28;20044;-74
2021/07/27 13:24:36;;;;;;;17.77;5.20;;;;;;;35.57;26.81;94939.00;10532588;28;20048;-74
2021/07/27 13:29:38;;;;;;;23.80;8.37;;;;;;;35.56;28.04;94936.63;10514473;28;20064;-74
2021/07/27 13:34:39;;;;;;;20.65;4.90;;;;;;;35.44;26.33;94932.47;10532782;28;20099;-74
2021/07/27 13:39:39;;;;;;;17.80;4.33;;;;;;;35.37;25.00;94930.63;10532379;28;20469;-74
2021/07/27 13:44:39;;;;;;;16.47;5.30;;;;;;;35.32;26.60;94933.13;10514868;28;20071;-74
2021/07/27 13:49:40;;;;;;;22.33;5.27;;;;;;;35.25;26.28;94923.66;10531988;28;20028;-74
2021/07/27 13:54:40;;;;;;;22.02;5.20;;;;;;;35.28;26.35;94916.41;10531684;28;20081;-74
2021/07/27 13:59:41;;;;;;;27.95;4.68;;;;;;;35.22;24.99;94916.13;10532075;28;20524;-74
2021/07/27 14:04:41;;;;;;;24.10;5.93;;;;;;;35.04;24.86;94922.06;10531597;28;20082;-74
2021/07/27 14:09:42;;;;;;;24.80;4.75;;;;;;;35.04;24.30;94921.28;10531340;28;20023;-74
2021/07/27 14:14:42;;;;;;;24.93;4.43;;;;;;;34.90;23.31;94905.56;10531617;28;20102;-75
2021/07/27 14:19:44;;;;;;;15.37;4.53;;;;;;;34.87;23.73;94907.25;10530864;28;20028;-73
2021/07/27 14:24:44;;;;;;;19.42;5.22;;;;;;;34.86;24.56;94905.66;10530567;28;20035;-73
2021/07/27 14:29:45;;;;;;;17.87;5.37;;;;;;;34.85;24.02;94909.66;10530654;28;20081;-73
2021/07/27 14:34:46;;;;;;;21.83;4.47;;;;;;;34.83;24.27;94898.16;10512457;28;20027;-73
2021/07/27 14:39:46;;;;;;;26.33;4.40;;;;;;;34.61;23.42;94894.13;10529319;28;20032;-73
2021/07/27 14:44:46;;;;;;;23.03;4.20;;;;;;;34.48;23.90;94893.94;10529778;28;20127;-73
2021/07/27 14:49:47;;;;;;;20.13;5.07;;;;;;;34.48;24.72;94896.75;10529751;28;20533;-73
2021/07/27 14:54:47;;;;;;;16.77;3.63;;;;;;;34.34;23.96;94889.41;10529597;28;20030;-73
2021/07/27 14:59:47;;;;;;;19.27;3.93;;;;;;;34.28;23.93;94880.69;10529283;28;20044;-73
2021/07/27 15:04:48;;;;;;;18.43;4.30;;;;;;;34.20;24.32;94887.63;10529220;28;20020;-73
2021/07/27 15:09:48;;;;;;;24.57;4.43;;;;;;;34.08;23.92;94886.22;10552580;28;20527;-73
2021/07/27 15:14:49;;;;;;;18.47;4.33;;;;;;;33.99;24.46;94883.94;10570732;28;20027;-73
2021/07/27 15:19:49;;;;;;;20.23;4.40;;;;;;;33.91;27.21;94874.16;10570905;28;20023;-73
2021/07/27 15:24:50;;;;;;;28.63;6.40;;;;;;;33.80;26.70;94877.09;10586545;27;20126;-73
2021/07/27 15:29:51;;;;;;;21.90;5.57;;;;;;;33.70;27.47;94875.19;10612739;27;20026;-73
2021/07/27 15:34:51;;;;;;;32.93;4.30;;;;;;;33.64;27.91;94883.25;10613134;27;20500;-73
2021/07/27 15:39:51;;;;;;;16.70;5.73;;;;;;;33.60;27.62;94882.50;10612065;27;20033;-73
2021/07/27 15:44:52;;;;;;;21.73;5.13;;;;;;;33.60;26.17;94874.16;10611755;27;20038;-73
2021/07/27 15:49:52;;;;;;;15.77;4.60;;;;;;;33.54;27.00;94881.41;10611646;27;20035;-73
2021/07/27 15:54:52;;;;;;;13.83;5.13;;;;;;;33.50;28.58;94881.44;10611841;27;20589;-73
2021/07/27 15:59:53;;;;;;;22.87;5.70;;;;;;;33.40;30.14;94885.19;10612077;27;20107;-73
2021/07/27 16:04:53;;;;;;;14.13;5.17;;;;;;;33.34;30.21;94884.09;10611605;27;20031;-73
2021/07/27 16:09:53;;;;;;;18.20;5.57;;;;;;;33.29;31.41;94882.53;10611913;27;20035;-73
2021/07/27 16:14:54;;;;;;;14.17;4.77;;;;;;;33.11;32.81;94871.59;10611140;28;20401;-73
2021/07/27 16:19:54;;;;;;;18.93;6.23;;;;;;;33.07;33.29;94887.53;10592961;28;20031;-73
2021/07/27 16:24:54;;;;;;;19.77;5.80;;;;;;;33.01;33.50;94889.22;10611436;27;20100;-73
2021/07/27 16:29:55;;;;;;;20.47;6.30;;;;;;;32.85;34.22;94901.72;10597208;28;20414;-72
2021/07/27 16:34:55;;;;;;;19.27;5.80;;;;;;;32.74;34.02;94903.03;10570847;28;20035;-72
2021/07/27 16:39:57;;;;;;;20.63;5.37;;;;;;;32.60;34.67;94909.50;10568133;28;20273;-72
2021/07/27 16:44:57;;;;;;;20.90;5.53;;;;;;;32.45;35.18;94908.84;10596772;28;20295;-73
2021/07/27 16:49:58;;;;;;;19.25;6.72;;;;;;;32.26;36.48;94908.19;10604446;27;20880;-72
2021/07/27 16:54:58;;;;;;;15.27;5.63;;;;;;;32.15;36.13;94911.09;10579936;28;20541;-72
2021/07/27 16:59:59;;;;;;;25.07;5.13;;;;;;;32.06;35.49;94915.50;10577505;28;20546;-73
2021/07/27 17:04:59;;;;;;;15.57;5.55;;;;;;;31.93;36.73;94920.75;10580348;27;20293;-72
2021/07/27 17:10:00;;;;;;;17.77;5.53;;;;;;;31.77;37.17;94922.03;10594570;27;20027;-72
2021/07/27 17:15:00;;;;;;;21.47;5.77;;;;;;;31.62;37.55;94923.31;10559578;28;20111;-72
2021/07/27 17:20:00;;;;;;;24.27;6.80;;;;;;;31.45;37.68;94920.19;10534121;28;20032;-74
2021/07/27 17:25:01;;;;;;;23.37;6.07;;;;;;;31.31;37.27;94923.84;10598176;27;20047;-74
2021/07/27 17:30:05;;;;;;;25.10;5.38;;;;;;;31.11;36.03;94923.50;10581897;27;20042;-74
2021/07/27 17:35:08;;;;;;;24.85;5.57;;;;;;;30.89;37.15;94925.53;10598007;27;20033;-74
2021/07/27 17:40:09;;;;;;;16.48;5.10;;;;;;;30.70;37.38;94929.56;10613301;27;20050;-74
2021/07/27 17:45:09;;;;;;;20.52;6.07;;;;;;;30.48;37.94;94935.13;10598208;27;20051;-74
2021/07/27 17:50:10;;;;;;;24.42;6.82;;;;;;;30.19;39.37;94941.84;10572931;28;20032;-73
2021/07/27 17:55:11;;;;;;;16.25;6.97;;;;;;;29.96;41.23;94943.00;10572794;28;20038;-74
2021/07/27 18:00:12;;;;;;;17.95;6.38;;;;;;;29.89;41.28;94954.06;10572367;28;20092;-73
2021/07/27 18:05:14;;;;;;;19.63;6.30;;;;;;;29.79;41.39;94950.88;10572979;28;20097;-73
2021/07/27 18:10:15;;;;;;;25.63;8.63;;;;;;;29.67;41.14;94965.88;10581489;27;20423;-76
2021/07/27 18:15:16;;;;;;;38.70;8.13;;;;;;;29.59;41.60;94957.94;10586462;27;20062;-76
2021/07/27 18:20:16;;;;;;;27.77;6.38;;;;;;;29.52;42.47;94964.25;10607343;27;20844;-74
2021/07/27 18:25:16;;;;;;;21.95;7.57;;;;;;;29.40;44.05;94972.88;10613365;27;20039;-75
2021/07/27 18:30:17;;;;;;;30.00;8.10;;;;;;;29.33;44.37;94973.66;10629845;27;20060;-75
2021/07/27 18:35:17;;;;;;;23.67;8.43;;;;;;;29.21;45.73;94976.75;10595481;27;20019;-75
2021/07/27 18:40:18;;;;;;;27.27;7.43;;;;;;;29.11;47.86;94981.06;10613281;27;20027;-75
2021/07/27 18:45:18;;;;;;;35.40;11.82;;;;;;;28.95;53.01;94992.41;10613478;27;20027;-73
2021/07/27 18:50:18;;;;;;;25.37;8.93;;;;;;;28.70;57.74;94993.03;10613414;27;20452;-76
2021/07/27 18:55:19;;;;;;;21.20;8.57;;;;;;;28.56;61.34;95001.19;10612303;27;20272;-76
2021/07/27 19:00:19;;;;;;;19.20;8.90;;;;;;;28.48;64.59;95014.16;10594760;27;20584;-73
2021/07/27 19:05:21;;;;;;;34.37;11.60;;;;;;;28.28;69.61;95008.84;10611227;27;20377;-73
2021/07/27 19:10:22;;;;;;;25.42;9.07;;;;;;;28.05;70.80;94991.66;10610916;27;20041;-76
2021/07/27 19:15:22;;;;;;;23.97;9.70;;;;;;;27.95;75.60;95001.41;10603064;27;20038;-76
2021/07/27 19:20:23;;;;;;;15.52;7.90;;;;;;;27.73;77.86;95008.69;10569702;28;20129;-76
2021/07/27 19:25:23;;;;;;;25.43;8.80;;;;;;;27.62;78.49;95005.78;10569014;27;20050;-76
2021/07/27 19:30:24;;;;;;;18.00;7.37;;;;;;;27.58;82.29;95007.72;10577096;27;20036;-73
2021/07/27 19:35:24;;;;;;;19.35;8.13;;;;;;;27.47;79.16;95012.31;10591752;27;21004;-76
2021/07/27 19:40:25;;;;;;;21.98;8.18;;;;;;;27.42;71.32;95011.47;10578719;27;20032;-74
2021/07/27 19:50:49;;;;;;;22.92;8.20;;;;;;;27.06;69.90;95010.19;10551935;27;20043;-76
2021/07/27 19:55:50;;;;;;;26.48;8.55;;;;;;;27.02;68.42;95017.63;10579078;27;20054;-76
2021/07/27 20:00:52;;;;;;;20.97;6.17;;;;;;;26.89;66.41;95023.34;10583778;27;20034;-76
2021/07/27 20:05:52;;;;;;;21.98;7.30;;;;;;;26.74;66.23;95025.09;10606951;27;20038;-76
2021/07/27 20:10:54;;;;;;;13.80;6.50;;;;;;;26.57;66.41;95028.34;10571229;28;20027;-76
2021/07/27 20:15:55;;;;;;;20.00;7.63;;;;;;;26.48;68.05;95025.03;10602713;28;20103;-76
2021/07/27 20:20:55;;;;;;;27.60;7.85;;;;;;;26.40;66.87;95027.69;10569208;28;20028;-76
2021/07/27 20:25:55;;;;;;;18.87;7.50;;;;;;;26.27;68.00;95029.81;10568417;28;20142;-76
2021/07/27 20:30:56;;;;;;;24.00;6.73;;;;;;;26.26;68.93;95041.19;10583027;28;20296;-76
2021/07/27 20:35:56;;;;;;;18.08;6.55;;;;;;;26.25;70.40;95034.91;10610984;27;20035;-75
2021/07/27 20:40:58;;;;;;;15.77;6.90;;;;;;;26.25;71.30;95036.88;10618035;27;20033;-76
2021/07/27 20:45:58;;;;;;;25.90;7.68;;;;;;;26.22;73.43;95051.34;10578149;27;20098;-76
2021/07/27 20:50:59;;;;;;;19.80;7.67;;;;;;;26.09;70.17;95048.78;10601652;27;20108;-76
2021/07/27 20:55:59;;;;;;;26.17;5.97;;;;;;;25.94;65.56;95057.88;10595192;27;20084;-74
2021/07/27 21:01:00;;;;;;;29.23;6.90;;;;;;;25.73;66.95;95056.34;10575477;28;20035;-74
2021/07/27 21:06:00;;;;;;;22.13;6.60;;;;;;;25.69;65.89;95058.22;10557526;28;20038;-73
2021/07/27 21:11:01;;;;;;;20.10;6.30;;;;;;;25.56;67.24;95065.03;10583331;27;20031;-74
2021/07/27 21:16:01;;;;;;;21.17;6.67;;;;;;;25.50;66.65;95072.78;10557974;28;20031;-73
2021/07/27 21:21:05;;;;;;;21.75;6.95;;;;;;;25.43;67.25;95078.13;10575206;28;20030;-73
2021/07/27 21:26:08;;;;;;;21.38;6.97;;;;;;;25.35;68.98;95077.16;10555667;28;20096;-73
2021/07/27 21:31:09;;;;;;;21.33;5.95;;;;;;;25.27;66.56;95069.91;10574068;28;20058;-73
2021/07/27 21:36:10;;;;;;;25.73;6.53;;;;;;;25.23;69.20;95074.53;10572408;28;20042;-73
2021/07/27 21:41:11;;;;;;;14.18;6.05;;;;;;;25.21;70.70;95068.56;10572826;28;20067;-74
2021/07/27 21:46:14;;;;;;;14.37;6.30;;;;;;;25.11;68.50;95066.41;10572165;28;20032;-74
2021/07/27 21:51:14;;;;;;;17.38;7.10;;;;;;;25.05;69.52;95068.63;10573297;28;20032;-74
2021/07/27 21:56:14;;;;;;;24.33;6.23;;;;;;;24.69;77.56;95068.56;10573473;28;20027;-74
2021/07/27 22:01:17;;;;;;;20.30;6.20;;;;;;;24.21;83.36;95065.78;10573381;28;20279;-74
2021/07/27 22:06:25;;;;;;;17.27;6.53;;;;;;;24.16;82.54;95068.78;10572480;28;20402;-74
2021/07/27 22:11:25;;;;;;;;;;;;;;;24.10;85.79;95074.88;10573248;28;20016;-73
2021/07/27 22:16:26;;;;;;;18.17;7.15;;;;;;;23.87;88.52;95075.44;10572640;28;19912;-73
2021/07/27 22:21:26;;;;;;;14.10;5.97;;;;;;;23.89;89.83;95081.41;10572483;28;20038;-73
2021/07/27 22:26:26;;;;;;;27.90;10.77;;;;;;;23.67;93.39;95078.03;10542360;28;20052;-73
2021/07/27 22:31:27;;;;;;;19.55;7.15;;;;;;;23.60;94.83;95072.34;10529976;28;20028;-73
2021/07/27 22:36:27;;;;;;;20.63;7.67;;;;;;;23.54;97.15;95060.81;10529760;28;20027;-73
2021/07/27 22:41:27;;;;;;;22.20;7.07;;;;;;;23.50;95.98;95061.88;10529564;28;20270;-73
2021/07/27 22:46:28;;;;;;;15.37;7.90;;;;;;;23.61;98.40;95065.72;10529177;28;20024;-73
2021/07/27 22:51:28;;;;;;;24.60;7.13;;;;;;;23.61;100.00;95073.94;10527472;28;20119;-73
2021/07/27 22:56:29;;;;;;;21.08;7.07;;;;;;;23.66;100.00;95072.91;10527764;28;20020;-73
2021/07/27 23:01:29;;;;;;;10.60;6.73;;;;;;;23.57;100.00;95066.75;10528237;28;20085;-72
2021/07/27 23:06:29;;;;;;;18.77;6.40;;;;;;;23.51;100.00;95075.25;10528527;28;20064;-72
2021/07/27 23:11:30;;;;;;;16.57;8.17;;;;;;;23.33;100.00;95082.94;10509833;28;20036;-72
2021/07/27 23:16:30;;;;;;;13.53;6.77;;;;;;;23.20;100.00;95076.66;10528463;28;20031;-72
2021/07/27 23:21:30;;;;;;;18.33;6.90;;;;;;;23.16;100.00;95081.28;10528373;28;20116;-72
2021/07/27 23:31:31;;;;;;;21.63;8.20;;;;;;;22.87;100.00;95083.09;10525733;28;20032;-72